Amboy, California
Current Conditions -  °F | °C
As of 9:56 AM on Saturday 25 Oct 2014 (Local Time) from KNXP Reporting Station
Scattered Clouds Scattered Clouds  
Wind Chill: 24°   Ceiling: Unl
Heat Index: 24°   Visibility: 10mi
Dew Point:   Wind: 5mph
Humidity: 28%   Direction: 40°NE
Pressure: 30.14"   Gusts: NA
Location:  34.56°N, 115.75°W
Report Text: KNXP 251656Z 04004KT 10SM FEW080 SCT120 24/04 A3014 RMK AO2 SLP174 T02390044
Loading
Personal Weather Stations






























Interactive Weather Map
Tropical Storm Tracking
New forecast layout! Learn more

10-Day Weather Forecast

Advertisements
Track Severe Weather on mobile